createdAt,value
2023-03-04T00:00:01.815Z,98.60
2023-03-04T00:02:28.747Z,99.00
2023-03-04T00:04:55.669Z,99.10
2023-03-04T00:07:22.560Z,99.20
2023-03-04T00:09:49.632Z,99.30
2023-03-04T00:12:17.552Z,99.70
2023-03-04T00:14:44.496Z,99.40
2023-03-04T00:17:11.497Z,99.50
2023-03-04T00:19:38.573Z,99.10
2023-03-04T00:22:05.704Z,98.80
2023-03-04T00:24:33.151Z,99.10
2023-03-04T00:27:00.257Z,99.20
2023-03-04T00:29:27.360Z,99.90
2023-03-04T00:31:54.569Z,99.50
2023-03-04T00:34:21.632Z,99.20
2023-03-04T00:36:48.571Z,99.50
2023-03-04T00:39:15.730Z,99.80
2023-03-04T00:41:42.694Z,99.90
2023-03-04T00:44:09.682Z,99.30
2023-03-04T00:46:36.673Z,99.50
2023-03-04T00:51:31.188Z,99.70
2023-03-04T00:54:00.932Z,99.80
2023-03-04T00:56:28.592Z,99.90
2023-03-04T00:58:55.679Z,99.90
2023-03-04T01:01:23.159Z,99.90
2023-03-04T01:03:50.135Z,99.90
2023-03-04T01:06:17.136Z,99.90
2023-03-04T01:08:44.257Z,99.90
2023-03-04T01:11:11.143Z,99.90
2023-03-04T01:13:38.604Z,99.90
2023-03-04T01:18:33.952Z,99.90
2023-03-04T01:21:00.962Z,99.90
2023-03-04T01:23:27.980Z,99.90
2023-03-04T01:28:22.517Z,99.90
2023-03-04T01:30:49.562Z,99.90
2023-03-04T01:33:16.538Z,99.90
2023-03-04T01:35:43.619Z,99.90
2023-03-04T01:38:10.762Z,99.90
2023-03-04T01:40:38.268Z,99.90
2023-03-04T01:43:05.750Z,99.90
2023-03-04T01:45:33.352Z,99.90
2023-03-04T01:50:34.276Z,99.90
2023-03-04T01:53:02.874Z,99.90
2023-03-04T01:55:31.174Z,99.90
2023-03-04T01:57:58.963Z,99.90
2023-03-04T02:00:34.141Z,99.90
2023-03-04T02:03:21.910Z,99.90
2023-03-04T02:05:51.249Z,99.90
2023-03-04T02:08:21.737Z,99.90
2023-03-04T02:10:49.788Z,99.90
2023-03-04T02:13:17.489Z,99.90
2023-03-04T02:15:46.070Z,99.90
2023-03-04T02:18:21.721Z,99.90
2023-03-04T02:21:12.140Z,99.90
2023-03-04T02:24:12.773Z,99.90
2023-03-04T02:26:41.624Z,99.90
2023-03-04T02:29:14.792Z,99.90
2023-03-04T02:31:46.329Z,99.90
2023-03-04T02:34:16.373Z,99.90
2023-03-04T02:36:44.881Z,99.90
2023-03-04T02:39:22.603Z,99.90
2023-03-04T02:41:52.924Z,99.90
2023-03-04T02:44:22.870Z,99.90
2023-03-04T02:46:51.239Z,99.90
2023-03-04T02:49:19.471Z,99.90
2023-03-04T02:51:46.540Z,99.90
2023-03-04T02:54:20.205Z,99.90
2023-03-04T02:56:51.865Z,99.90
2023-03-04T02:59:19.887Z,99.90
2023-03-04T03:01:47.017Z,99.90
2023-03-04T03:04:14.825Z,99.90
2023-03-04T03:06:41.792Z,99.90
2023-03-04T03:09:09.200Z,99.90
2023-03-04T03:11:36.448Z,99.90
2023-03-04T03:14:03.795Z,99.90
2023-03-04T03:16:31.440Z,99.90
2023-03-04T03:18:58.627Z,99.90
2023-03-04T03:21:25.700Z,99.90
2023-03-04T03:23:53.108Z,99.90
2023-03-04T03:26:20.435Z,99.90
2023-03-04T03:31:15.074Z,99.90
2023-03-04T03:33:42.175Z,99.90
2023-03-04T03:36:09.472Z,99.90
2023-03-04T03:38:37.601Z,99.90
2023-03-04T03:41:04.778Z,99.90
2023-03-04T03:43:31.782Z,99.90
2023-03-04T03:45:59.022Z,99.90
2023-03-04T03:48:25.934Z,99.90
2023-03-04T03:50:52.883Z,99.90
2023-03-04T03:53:19.787Z,99.90
2023-03-04T03:55:46.748Z,99.90
2023-03-04T03:58:14.451Z,99.90
2023-03-04T04:00:41.343Z,99.90
2023-03-04T04:03:09.484Z,99.90
2023-03-04T04:05:36.865Z,99.90
2023-03-04T04:08:03.983Z,99.90
2023-03-04T04:10:31.006Z,99.90
2023-03-04T04:12:57.982Z,99.90
2023-03-04T04:15:24.902Z,99.90
2023-03-04T04:17:51.768Z,99.90
2023-03-04T04:20:18.829Z,99.90
2023-03-04T04:22:45.845Z,99.90
2023-03-04T04:25:13.240Z,99.90
2023-03-04T04:27:40.154Z,99.90
2023-03-04T04:30:07.920Z,99.90
2023-03-04T04:32:35.045Z,99.90
2023-03-04T04:35:01.933Z,99.90
2023-03-04T04:37:28.809Z,99.90
2023-03-04T04:39:55.786Z,99.90
2023-03-04T04:42:23.329Z,99.90
2023-03-04T04:44:50.740Z,99.90
2023-03-04T04:47:17.754Z,99.90
2023-03-04T04:49:45.122Z,99.90
2023-03-04T04:52:11.984Z,99.90
2023-03-04T04:54:38.871Z,99.90
2023-03-04T04:57:06.066Z,99.90
2023-03-04T04:59:33.031Z,99.90
2023-03-04T05:01:59.921Z,99.90
2023-03-04T05:04:27.520Z,99.90
2023-03-04T05:06:54.376Z,99.90
2023-03-04T05:09:22.950Z,99.90
2023-03-04T05:11:50.629Z,99.90
2023-03-04T05:14:17.701Z,99.90
2023-03-04T05:16:44.646Z,99.90
2023-03-04T05:19:11.614Z,99.90
2023-03-04T05:21:38.589Z,99.90
2023-03-04T05:24:06.076Z,99.90
2023-03-04T05:29:00.395Z,99.90
2023-03-04T05:31:27.410Z,99.90
2023-03-04T05:33:54.679Z,99.90
2023-03-04T05:38:49.016Z,99.90
2023-03-04T05:41:18.912Z,99.90
2023-03-04T05:43:45.841Z,99.90
2023-03-04T05:46:16.540Z,99.90
2023-03-04T05:48:44.256Z,99.90
2023-03-04T05:51:11.334Z,99.90
2023-03-04T05:53:39.329Z,99.90
2023-03-04T05:56:15.364Z,99.90
2023-03-04T05:58:43.223Z,99.90
2023-03-04T06:01:10.897Z,99.90
2023-03-04T06:06:06.401Z,99.90
2023-03-04T06:13:28.267Z,99.90
2023-03-04T06:15:57.643Z,99.90
2023-03-04T06:18:26.326Z,99.90
2023-03-04T06:21:01.612Z,99.90
2023-03-04T06:23:29.782Z,99.90
2023-03-04T06:25:59.587Z,99.90
2023-03-04T06:28:27.097Z,99.90
2023-03-04T06:30:55.807Z,99.90
2023-03-04T06:33:22.868Z,99.90
2023-03-04T06:35:56.442Z,99.90
2023-03-04T06:38:25.283Z,99.90
2023-03-04T06:40:52.288Z,99.90
2023-03-04T06:43:19.818Z,99.90
2023-03-04T06:45:47.135Z,99.90
2023-03-04T06:48:14.087Z,99.90
2023-03-04T06:53:08.463Z,99.90
2023-03-04T06:55:36.414Z,99.90
2023-03-04T06:58:03.662Z,99.90
2023-03-04T07:00:30.945Z,99.90
2023-03-04T07:02:59.141Z,99.90
2023-03-04T07:05:26.546Z,99.90
2023-03-04T07:07:53.605Z,99.90
2023-03-04T07:10:20.699Z,99.90
2023-03-04T07:12:47.756Z,99.90
2023-03-04T07:15:14.955Z,99.90
2023-03-04T07:17:41.853Z,99.90
2023-03-04T07:20:10.047Z,99.90
2023-03-04T07:22:37.086Z,99.90
2023-03-04T07:25:06.121Z,99.90
2023-03-04T07:27:33.219Z,99.90
2023-03-04T07:30:00.153Z,99.90
2023-03-04T07:32:27.504Z,99.90
2023-03-04T07:34:54.460Z,99.90
2023-03-04T07:37:21.423Z,99.90
2023-03-04T07:39:48.410Z,99.90
2023-03-04T07:42:15.360Z,99.90
2023-03-04T07:44:42.364Z,99.90
2023-03-04T07:47:09.285Z,99.90
2023-03-04T07:49:36.712Z,99.90
2023-03-04T07:52:05.505Z,99.90
2023-03-04T07:54:32.640Z,99.90
2023-03-04T07:56:59.532Z,99.90
2023-03-04T07:59:26.452Z,99.90
2023-03-04T08:01:53.337Z,99.90
2023-03-04T08:04:20.334Z,99.90
2023-03-04T08:06:48.770Z,99.90
2023-03-04T08:09:15.716Z,99.90
2023-03-04T08:11:43.258Z,99.90
2023-03-04T08:14:13.730Z,99.90
2023-03-04T08:16:40.800Z,99.90
2023-03-04T08:19:08.675Z,99.90
2023-03-04T08:21:37.335Z,99.90
2023-03-04T08:24:08.700Z,99.90
2023-03-04T08:26:43.838Z,99.90
2023-03-04T08:29:15.409Z,99.90
2023-03-04T08:31:42.492Z,99.90
2023-03-04T08:34:10.591Z,99.90
2023-03-04T08:36:37.750Z,99.90
2023-03-04T08:39:05.876Z,99.70
2023-03-04T08:41:33.216Z,99.20
2023-03-04T08:44:01.287Z,99.80
2023-03-04T08:46:28.977Z,99.40
2023-03-04T08:48:56.095Z,98.10
2023-03-04T08:51:23.380Z,98.90
2023-03-04T08:53:50.262Z,97.90
2023-03-04T08:56:17.317Z,98.40
2023-03-04T08:58:44.436Z,97.00
2023-03-04T09:01:13.513Z,97.70
2023-03-04T09:03:41.693Z,96.70
2023-03-04T09:06:11.605Z,97.50
2023-03-04T09:08:38.467Z,96.60
2023-03-04T09:11:05.709Z,96.20
2023-03-04T09:13:33.384Z,95.70
2023-03-04T09:16:01.116Z,95.90
2023-03-04T09:18:28.900Z,96.50
2023-03-04T09:20:55.813Z,96.50
2023-03-04T09:23:23.455Z,96.30
2023-03-04T09:25:50.521Z,96.00
2023-03-04T09:28:18.584Z,95.70
2023-03-04T09:30:45.831Z,94.70
2023-03-04T09:33:13.733Z,95.30
2023-03-04T09:35:41.500Z,94.60
2023-03-04T09:38:08.603Z,94.90
2023-03-04T09:40:46.795Z,92.90
2023-03-04T09:43:30.027Z,92.10
2023-03-04T09:46:12.554Z,90.70
2023-03-04T09:48:51.150Z,90.40
2023-03-04T09:51:37.605Z,89.30
2023-03-04T09:54:42.651Z,88.70
2023-03-04T09:57:27.996Z,88.00
2023-03-04T10:00:05.506Z,86.00
2023-03-04T10:03:14.097Z,85.30
2023-03-04T10:06:04.748Z,82.50
2023-03-04T10:08:52.469Z,79.50
2023-03-04T10:11:46.158Z,76.90
2023-03-04T10:14:22.522Z,75.30
2023-03-04T10:17:13.809Z,75.00
2023-03-04T10:20:33.335Z,73.90
2023-03-04T10:23:10.441Z,71.50
2023-03-04T10:25:46.958Z,68.70
2023-03-04T10:28:21.612Z,68.20
2023-03-04T10:31:05.439Z,68.80
2023-03-04T10:33:36.161Z,65.10
2023-03-04T10:36:25.386Z,62.50
2023-03-04T10:39:09.890Z,60.00
2023-03-04T10:41:37.417Z,59.70
2023-03-04T10:44:11.347Z,57.90
2023-03-04T10:46:40.674Z,56.40
2023-03-04T10:49:10.473Z,56.00
2023-03-04T10:52:18.977Z,53.80
2023-03-04T10:54:55.989Z,54.60
2023-03-04T10:57:40.336Z,57.90
2023-03-04T11:00:26.106Z,56.90
2023-03-04T11:02:52.993Z,56.00
2023-03-04T11:05:25.816Z,56.70
2023-03-04T11:08:00.489Z,54.80
2023-03-04T11:10:36.418Z,55.00
2023-03-04T11:13:12.153Z,55.60
2023-03-04T11:16:01.919Z,54.40
2023-03-04T11:18:43.865Z,52.90
2023-03-04T11:21:24.706Z,52.20
2023-03-04T11:24:08.137Z,50.30
2023-03-04T11:26:49.344Z,48.70
2023-03-04T11:29:43.601Z,48.20
2023-03-04T11:32:40.511Z,48.00
2023-03-04T11:35:39.223Z,45.60
2023-03-04T11:38:21.423Z,44.10
2023-03-04T11:41:52.333Z,38.20
2023-03-04T11:44:19.316Z,38.50
2023-03-04T11:46:54.979Z,39.10
2023-03-04T11:50:23.230Z,35.80
2023-03-04T11:53:09.709Z,31.60
2023-03-04T11:55:56.249Z,28.20
2023-03-04T11:58:52.101Z,25.70
2023-03-04T12:01:31.895Z,26.70
2023-03-04T12:04:22.834Z,26.70
2023-03-04T12:07:23.858Z,27.50
2023-03-04T12:10:25.904Z,26.10
2023-03-04T12:13:36.380Z,26.20
2023-03-04T12:16:33.009Z,26.90
2023-03-04T12:19:27.675Z,27.10
2023-03-04T12:22:30.434Z,26.80
2023-03-04T12:25:32.876Z,25.70
2023-03-04T12:28:20.701Z,26.80
2023-03-04T12:31:30.675Z,26.80
2023-03-04T12:34:59.572Z,26.20
2023-03-04T12:37:47.904Z,27.30
2023-03-04T12:40:32.774Z,28.30
2023-03-04T12:43:22.764Z,28.20
2023-03-04T12:46:15.415Z,29.10
2023-03-04T12:49:17.081Z,31.40
2023-03-04T12:52:40.326Z,32.40
2023-03-04T12:55:16.970Z,33.20
2023-03-04T12:57:44.107Z,32.90
2023-03-04T13:00:45.946Z,33.80
2023-03-04T13:03:45.764Z,35.10
2023-03-04T13:06:46.398Z,35.60
2023-03-04T13:09:30.296Z,35.40
2023-03-04T13:12:23.480Z,35.80
2023-03-04T13:15:13.312Z,36.40
2023-03-04T13:17:53.142Z,35.30
2023-03-04T13:20:40.123Z,35.80
2023-03-04T13:23:10.185Z,35.90
2023-03-04T13:25:38.973Z,36.10
2023-03-04T13:28:16.103Z,36.30
2023-03-04T13:31:16.881Z,36.30
2023-03-04T13:33:53.246Z,35.70
2023-03-04T13:36:32.446Z,35.30
2023-03-04T13:39:05.278Z,35.50
2023-03-04T13:41:48.411Z,35.00
2023-03-04T13:44:35.569Z,35.80
2023-03-04T13:47:16.530Z,34.80
2023-03-04T13:49:43.400Z,35.00
2023-03-04T13:52:39.386Z,37.30
2023-03-04T13:55:40.816Z,36.70
2023-03-04T13:58:27.520Z,37.70
2023-03-04T14:00:55.995Z,37.30
2023-03-04T14:03:30.765Z,38.40
2023-03-04T14:06:15.820Z,40.30
2023-03-04T14:08:42.910Z,40.50
2023-03-04T14:11:27.867Z,40.90
2023-03-04T14:13:57.604Z,41.30
2023-03-04T14:16:29.073Z,41.30
2023-03-04T14:19:06.609Z,43.40
2023-03-04T14:21:36.757Z,44.40
2023-03-04T14:24:08.583Z,42.80
2023-03-04T14:26:35.589Z,43.10
2023-03-04T14:29:03.973Z,43.80
2023-03-04T14:31:35.104Z,45.30
2023-03-04T14:34:02.660Z,45.40
2023-03-04T14:36:36.434Z,44.70
2023-03-04T14:39:07.293Z,45.10
2023-03-04T14:41:43.259Z,46.80
2023-03-04T14:44:18.784Z,46.10
2023-03-04T14:47:06.052Z,46.50
2023-03-04T14:49:37.117Z,46.10
2023-03-04T14:52:04.828Z,47.30
2023-03-04T14:54:41.670Z,48.10
2023-03-04T14:57:26.736Z,47.80
2023-03-04T14:59:54.659Z,48.00
2023-03-04T15:02:31.482Z,49.40
2023-03-04T15:05:16.076Z,49.90
2023-03-04T15:07:51.048Z,50.10
2023-03-04T15:10:26.991Z,51.10
2023-03-04T15:12:57.296Z,50.90
2023-03-04T15:15:38.205Z,51.60
2023-03-04T15:18:18.181Z,51.40
2023-03-04T15:20:59.099Z,52.70
2023-03-04T15:23:30.108Z,51.90
2023-03-04T15:26:04.302Z,51.80
2023-03-04T15:28:36.778Z,50.50
2023-03-04T15:31:16.034Z,50.40
2023-03-04T15:33:43.247Z,47.50
2023-03-04T15:36:16.256Z,47.70
2023-03-04T15:38:50.701Z,47.10
2023-03-04T15:41:26.451Z,45.80
2023-03-04T15:43:54.502Z,47.20
2023-03-04T15:46:21.900Z,48.20
2023-03-04T15:48:49.277Z,49.70
2023-03-04T15:51:22.208Z,50.60
2023-03-04T15:53:59.830Z,52.90
2023-03-04T15:56:32.380Z,52.70
2023-03-04T15:59:06.748Z,53.40
2023-03-04T16:01:33.750Z,54.20
2023-03-04T16:04:00.755Z,54.50
2023-03-04T16:06:31.086Z,57.10
2023-03-04T16:08:59.212Z,56.40
2023-03-04T16:11:28.985Z,58.00
2023-03-04T16:13:56.175Z,55.70
2023-03-04T16:16:23.277Z,57.20
2023-03-04T16:18:50.162Z,56.30
2023-03-04T16:21:23.231Z,58.60
2023-03-04T16:23:52.183Z,57.00
2023-03-04T16:26:25.350Z,57.40
2023-03-04T16:28:53.060Z,57.50
2023-03-04T16:31:21.589Z,59.70
2023-03-04T16:33:48.670Z,59.50
2023-03-04T16:36:27.669Z,59.10
2023-03-04T16:39:03.042Z,59.60
2023-03-04T16:41:30.804Z,60.10
2023-03-04T16:44:01.615Z,61.70
2023-03-04T16:46:29.946Z,61.50
2023-03-04T16:48:56.878Z,61.90
2023-03-04T16:51:24.325Z,62.70
2023-03-04T16:54:00.208Z,65.00
2023-03-04T16:56:27.927Z,63.60
2023-03-04T16:58:54.953Z,63.60
2023-03-04T17:01:27.815Z,64.40
2023-03-04T17:03:55.749Z,64.70
2023-03-04T17:06:23.509Z,65.20
2023-03-04T17:08:51.557Z,66.10
2023-03-04T17:11:23.664Z,66.90
2023-03-04T17:13:51.244Z,67.60
2023-03-04T17:16:19.086Z,67.90
2023-03-04T17:18:46.326Z,68.70
2023-03-04T17:21:21.484Z,72.00
2023-03-04T17:23:48.670Z,69.90
2023-03-04T17:26:16.847Z,70.40
2023-03-04T17:28:43.861Z,70.80
2023-03-04T17:31:14.454Z,70.90
2023-03-04T17:33:42.036Z,71.50
2023-03-04T17:36:12.241Z,72.20
2023-03-04T17:38:39.501Z,71.80
2023-03-04T17:41:11.104Z,72.10
2023-03-04T17:43:38.022Z,72.10
2023-03-04T17:46:11.224Z,74.90
2023-03-04T17:48:38.312Z,73.10
2023-03-04T17:51:05.542Z,73.70
2023-03-04T17:53:33.106Z,73.50
2023-03-04T17:56:03.738Z,74.30
2023-03-04T17:58:33.822Z,74.60
2023-03-04T18:01:27.612Z,76.90
2023-03-04T18:03:55.070Z,75.80
2023-03-04T18:06:25.380Z,79.30
2023-03-04T18:08:53.164Z,76.30
2023-03-04T18:11:25.839Z,79.10
2023-03-04T18:13:55.430Z,77.30
2023-03-04T18:16:26.563Z,77.20
2023-03-04T18:18:57.867Z,77.80
2023-03-04T18:21:26.506Z,77.70
2023-03-04T18:23:54.420Z,78.00
2023-03-04T18:26:25.322Z,78.80
2023-03-04T18:28:54.610Z,79.10
2023-03-04T18:31:30.984Z,79.10
2023-03-04T18:34:01.340Z,80.90
2023-03-04T18:36:28.814Z,78.10
2023-03-04T18:38:57.256Z,77.80
2023-03-04T18:41:27.142Z,76.60
2023-03-04T18:43:54.585Z,76.70
2023-03-04T18:46:33.126Z,76.70
2023-03-04T18:49:04.456Z,76.30
2023-03-04T18:51:32.033Z,77.80
2023-03-04T18:53:59.105Z,77.70
2023-03-04T18:56:56.384Z,75.80
2023-03-04T18:59:37.098Z,77.30
2023-03-04T19:02:14.225Z,76.50
2023-03-04T19:04:41.389Z,76.40
2023-03-04T19:07:08.236Z,76.50
2023-03-04T19:09:35.119Z,75.30
2023-03-04T19:12:02.870Z,75.40
2023-03-04T19:14:29.756Z,75.00
2023-03-04T19:16:56.693Z,75.50
2023-03-04T19:19:23.688Z,76.70
2023-03-04T19:21:50.570Z,78.50
2023-03-04T19:24:17.485Z,76.00
2023-03-04T19:26:44.474Z,77.20
2023-03-04T19:29:11.619Z,77.10
2023-03-04T19:31:41.323Z,77.30
2023-03-04T19:34:09.098Z,77.20
2023-03-04T19:36:36.008Z,77.70
2023-03-04T19:39:02.883Z,77.90
2023-03-04T19:41:30.169Z,78.20
2023-03-04T19:43:57.830Z,78.70
2023-03-04T19:46:27.497Z,80.80
2023-03-04T19:48:54.464Z,81.30
2023-03-04T19:51:29.166Z,80.30
2023-03-04T19:53:56.398Z,80.80
2023-03-04T19:56:23.829Z,79.40
2023-03-04T19:58:54.483Z,79.70
2023-03-04T20:01:36.796Z,80.00
2023-03-04T20:04:16.418Z,80.30
2023-03-04T20:06:47.568Z,80.70
2023-03-04T20:09:17.210Z,80.10
2023-03-04T20:11:57.175Z,80.00
2023-03-04T20:14:26.360Z,82.30
2023-03-04T20:16:53.294Z,81.10
2023-03-04T20:19:20.189Z,81.30
2023-03-04T20:21:47.074Z,82.20
2023-03-04T20:24:15.150Z,81.80
2023-03-04T20:26:42.288Z,82.20
2023-03-04T20:29:09.180Z,82.40
2023-03-04T20:31:38.935Z,82.10
2023-03-04T20:34:07.673Z,81.80
2023-03-04T20:36:34.874Z,82.20
2023-03-04T20:39:04.316Z,82.80
2023-03-04T20:41:35.194Z,82.70
2023-03-04T20:44:02.260Z,83.00
2023-03-04T20:46:34.509Z,83.20
2023-03-04T20:49:06.444Z,83.20
2023-03-04T20:51:34.542Z,83.50
2023-03-04T20:54:01.958Z,83.60
2023-03-04T20:56:29.372Z,84.30
2023-03-04T20:58:59.693Z,84.00
2023-03-04T21:01:26.997Z,84.40
2023-03-04T21:03:54.022Z,84.90
2023-03-04T21:06:20.959Z,86.00
2023-03-04T21:08:47.877Z,85.70
2023-03-04T21:11:16.558Z,86.10
2023-03-04T21:13:44.681Z,89.30
2023-03-04T21:16:17.339Z,89.70
2023-03-04T21:18:44.843Z,89.00
2023-03-04T21:21:25.869Z,88.30
2023-03-04T21:23:55.705Z,87.40
2023-03-04T21:26:23.554Z,86.20
2023-03-04T21:28:52.356Z,85.50
2023-03-04T21:31:26.757Z,85.60
2023-03-04T21:33:55.951Z,86.30
2023-03-04T21:36:23.338Z,86.50
2023-03-04T21:38:50.457Z,86.50
2023-03-04T21:41:21.295Z,87.20
2023-03-04T21:43:48.703Z,87.30
2023-03-04T21:46:17.185Z,87.20
2023-03-04T21:48:44.846Z,87.30
2023-03-04T21:51:14.982Z,86.20
2023-03-04T21:53:43.366Z,85.50
2023-03-04T21:56:12.108Z,84.80
2023-03-04T21:58:42.143Z,87.50
2023-03-04T22:01:18.745Z,85.40
2023-03-04T22:03:48.617Z,85.40
2023-03-04T22:06:16.998Z,84.80
2023-03-04T22:08:43.855Z,84.80
2023-03-04T22:11:12.391Z,85.30
2023-03-04T22:13:40.544Z,85.70
2023-03-04T22:16:08.841Z,88.00
2023-03-04T22:18:38.465Z,84.90
2023-03-04T22:21:10.266Z,86.50
2023-03-04T22:23:38.467Z,82.50
2023-03-04T22:26:16.739Z,81.90
2023-03-04T22:28:44.138Z,82.20
2023-03-04T22:31:29.902Z,81.80
2023-03-04T22:34:03.773Z,81.40
2023-03-04T22:36:33.297Z,81.10
2023-03-04T22:39:02.615Z,81.40
2023-03-04T22:41:29.591Z,81.50
2023-03-04T22:43:56.960Z,80.60
2023-03-04T22:46:31.427Z,80.80
2023-03-04T22:49:01.238Z,81.10
2023-03-04T22:51:28.985Z,81.20
2023-03-04T22:53:56.568Z,80.20
2023-03-04T22:56:23.821Z,79.70
2023-03-04T22:58:50.715Z,78.80
2023-03-04T23:01:19.180Z,78.80
2023-03-04T23:03:48.982Z,79.40
2023-03-04T23:06:25.056Z,78.80
2023-03-04T23:08:52.868Z,78.80
2023-03-04T23:11:27.391Z,78.90
2023-03-04T23:13:55.061Z,78.30
2023-03-04T23:16:24.158Z,78.70
2023-03-04T23:18:52.058Z,79.10
2023-03-04T23:21:25.552Z,81.70
2023-03-04T23:23:53.240Z,80.10
2023-03-04T23:26:24.792Z,79.90
2023-03-04T23:28:52.423Z,80.10
2023-03-04T23:31:19.649Z,80.00
2023-03-04T23:33:48.363Z,80.40
2023-03-04T23:36:18.627Z,81.00
2023-03-04T23:38:49.113Z,81.00
2023-03-04T23:41:21.073Z,81.50
2023-03-04T23:43:49.295Z,81.40
2023-03-04T23:46:16.327Z,81.50
2023-03-04T23:48:47.335Z,82.00
2023-03-04T23:51:20.614Z,81.80
2023-03-04T23:53:48.227Z,83.40
2023-03-04T23:56:19.780Z,82.40
2023-03-04T23:58:47.278Z,82.60
